Latest Coastal Weather Observations for Bunbury

IDW60701

Issued at 9:43 pm WST Tuesday 27 September 2016 (issued every 10 minutes, with the page automatically refreshed every 10 minutes)

About coastal observations | Map of coastal stations | Coastal observations for WA | Marine services | Other Formats
Station Details ID: 009965 Name: BUNBURY Lat: -33.36 Lon: 115.64 Height: 5.2 m
Data from the previous 72 hours. | See also: Recent months at Bunbury
Date/Time
WST
Temp
°C
Wind Pressure Rain since
9am
mm
Weather Cloud Vis
km
Sea
Height
m
Swell
Dir  Spd
kts
Gust
kts
hPa Trend Height
m
Period
s
Dir
27/09:30pm 8.6 SSW 9 13 1016.1 - 4.6 - - - - - - -
27/09:00pm 8.8 SSW 10 15 1016.0 - 4.6 - - - - - - -
27/08:30pm 9.4 SSW 12 20 1015.7 - 4.6 - - - - - - -
27/08:00pm 9.1 SSW 11 19 1015.1 - 4.6 - - - - - - -
27/07:30pm 10.2 SW 15 27 1014.5 - 4.6 - - - - - - -
27/07:07pm 10.6 SW 15 27 1014.0 - 4.6 - - - - - - -
27/07:00pm 10.4 SW 15 25 1013.7 - 4.6 - - - - - - -
27/06:32pm 10.3 SW 15 28 1013.0 - 4.6 - - - - - - -
27/06:30pm 10.3 SW 14 28 1013.1 - 4.6 - - - - - - -
27/06:00pm 10.5 SSW 16 29 1012.6 - 4.4 - - - - - - -
27/05:30pm 12.7 SW 15 27 1011.9 - 4.4 - - - - - - -
27/05:29pm 12.8 SW 15 27 1011.8 - 4.4 - - - - - - -
27/05:00pm 12.8 SW 13 20 1011.5 - 4.4 - - - - - - -
27/04:47pm 12.3 SW 15 25 1011.4 - 4.4 - - - - - - -
27/04:30pm 12.6 SW 17 26 1011.1 - 4.4 - - - - - - -
27/04:00pm 12.1 SW 18 30 1010.6 - 4.4 - - - - - - -
27/03:30pm 13.4 SW 17 27 1010.2 - 4.2 - - - - - - -
27/03:07pm 12.9 SW 15 25 1009.8 - 4.2 - - - - - - -
27/03:00pm 13.3 SW 17 25 1009.7 - 4.2 Recent precip. - - - - - -
27/02:31pm 11.9 SW 18 29 1009.2 - 4.2 - - - - - - -
27/02:30pm 11.8 SW 19 30 1009.2 - 4.2 - - - - - - -
27/02:22pm 11.8 WSW 15 30 1009.1 - 4.2 - - - - - - -
27/02:00pm 13.3 WSW 9 14 1008.3 - 2.8 - - - - - - -
27/01:30pm 12.4 SW 9 16 1008.6 - 2.8 - - - - - - -
27/01:00pm 12.1 SW 14 21 1009.6 - 2.8 - - - - - - -
27/12:32pm 11.5 SW 15 25 1009.5 - 2.0 - - - - - - -
27/12:30pm 11.4 SW 16 25 1009.5 - 2.0 - - - - - - -
27/12:00pm 12.5 W 17 30 1009.0 - 1.0 Rain - - - - - -
27/11:47am 15.3 WNW 17 35 1009.0 - 0.8 - - - - - - -
27/11:30am 14.8 WNW 16 24 1008.8 - 0.6 - - - - - - -
27/11:00am 16.5 WNW 16 26 1009.3 - 0.6 - - - - - - -
27/10:53am 16.6 WNW 16 26 1009.3 - 0.6 - - - - - - -
27/10:30am 16.9 WNW 14 21 1009.7 - 0.6 - - - - - - -
27/10:00am 15.2 NW 13 22 1010.2 - 0.4 - - - - - - -
27/09:30am 14.9 NW 15 25 1010.9 - 0.2 - - - - - - -
27/09:00am 15.3 NW 14 21 1010.9 - 0.4 - - - - - - -
27/08:30am 16.1 NW 12 17 1011.2 - 0.4 - - - - - - -
27/08:00am 15.6 WNW 13 20 1011.6 - 0.4 - - - - - - -
27/07:30am 14.9 WNW 13 18 1011.9 - 0.4 - - - - - - -
27/07:00am 15.1 WNW 9 16 1012.0 - 0.4 - - - - - - -
27/06:30am 14.1 WNW 8 11 1012.3 - 0.4 - - - - - - -
27/06:00am 14.0 WNW 9 16 1012.4 - 0.4 - - - - - - -
27/05:30am 14.1 WNW 10 15 1012.7 - 0.4 - - - - - - -
27/05:00am 14.0 WNW 7 11 1013.0 - 0.4 - - - - - - -
27/04:30am 14.0 WNW 7 11 1013.2 - 0.4 - - - - - - -
27/04:00am 13.9 NW 10 15 1013.5 - 0.4 - - - - - - -
27/03:30am 14.0 NW 9 14 1013.6 - 0.4 - - - - - - -
27/03:00am 14.2 NW 8 11 1013.9 - 0.4 - - - - - - -
27/02:30am 13.6 NW 6 8 1014.4 - 0.4 - - - - - - -
27/02:00am 13.4 NW 5 7 1014.7 - 0.4 - - - - - - -
27/01:30am 13.4 WNW 5 8 1015.3 - 0.4 - - - - - - -
27/01:00am 14.0 W 5 7 1015.5 - 0.4 - - - - - - -
27/12:30am 14.1 WNW 5 7 1015.8 - 0.4 - - - - - - -
27/12:00am 13.9 WNW 5 7 1016.1 - 0.4 - - - - - - -
 
Date/Time
WST
Temp
°C
Wind Pressure Rain since
9am
mm
Weather Cloud Vis
km
Sea
Height
m
Swell
Dir  Spd
kts
Gust
kts
hPa Trend Height
m
Period
s
Dir
26/11:30pm 13.8 WNW 5 7 1016.3 - 0.4 - - - - - - -
26/11:00pm 14.0 WNW 5 7 1016.7 - 0.4 - - - - - - -
26/10:30pm 13.8 WNW 4 6 1016.9 - 0.4 - - - - - - -
26/10:00pm 13.6 W 4 6 1017.2 - 0.4 - - - - - - -
26/09:30pm 13.4 W 3 7 1017.4 - 0.4 - - - - - - -
26/09:00pm 12.8 W 2 4 1017.3 - 0.4 - - - - - - -
26/08:30pm 12.7 SW 1 3 1017.5 - 0.4 - - - - - - -
26/08:00pm 12.7 SSW 3 5 1017.5 - 0.4 - - - - - - -
26/07:30pm 13.1 SW 5 9 1017.5 - 0.4 - - - - - - -
26/07:00pm 13.9 W 11 19 1017.2 - 0.2 - - - - - - -
26/06:30pm 14.9 WNW 7 10 1016.8 - 0.2 - - - - - - -
26/06:00pm 14.7 W 11 17 1017.0 - 0.2 - - - - - - -
26/05:30pm 14.7 WNW 7 12 1017.0 - 0.2 - - - - - - -
26/05:00pm 16.4 W 9 14 1017.1 - 0.2 - - - - - - -
26/04:30pm 16.7 W 11 18 1017.2 - 0.2 - - - - - - -
26/04:00pm 15.5 WNW 11 17 1017.2 - 0.2 - - - - - - -
26/03:30pm 15.8 W 13 20 1017.2 - 0.2 - - - - - - -
26/03:00pm 16.5 W 11 16 1017.1 - 0.2 - - - - - - -
26/02:30pm 17.0 WNW 12 19 1017.2 - 0.2 - - - - - - -
26/02:00pm 17.3 W 12 18 1017.2 - 0.2 - - - - - - -
26/01:30pm 16.8 WNW 10 17 1017.3 - 0.2 - - - - - - -
26/01:00pm 16.7 WNW 11 17 1017.7 - 0.2 - - - - - - -
26/12:30pm 15.5 W 9 13 1017.9 - 0.2 - - - - - - -
26/12:00pm 16.3 WNW 11 19 1018.0 - 0.2 - - - - - - -
26/11:30am 15.9 WNW 10 16 1018.3 - 0.2 - - - - - - -
26/11:00am 15.5 W 11 18 1018.6 - 0.2 - - - - - - -
26/10:30am 15.2 W 9 14 1018.7 - 0.2 - - - - - - -
26/10:00am 13.7 W 9 15 1018.8 - 0.2 - - - - - - -
26/09:30am 14.8 WNW 10 17 1019.1 - 0.0 - - - - - - -
26/09:00am 14.6 WNW 9 15 1019.1 - 0.0 - - - - - - -
26/08:30am 14.9 W 11 17 1018.8 - 0.0 - - - - - - -
26/08:00am 14.1 W 10 17 1018.7 - 0.0 - - - - - - -
26/07:30am 14.9 W 12 19 1018.8 - 0.0 - - - - - - -
26/07:00am 14.4 W 11 18 1018.6 - 0.0 - - - - - - -
26/06:30am 14.1 WNW 8 14 1018.4 - 0.0 - - - - - - -
26/06:00am 13.9 WNW 10 15 1018.3 - 0.0 - - - - - - -
26/05:30am 13.6 WNW 10 14 1018.3 - 0.0 - - - - - - -
26/05:00am 13.3 WNW 9 15 1018.2 - 0.0 - - - - - - -
26/04:30am 12.9 WNW 7 12 1018.4 - 0.0 - - - - - - -
26/04:00am 12.9 WNW 9 15 1018.3 - 0.0 - - - - - - -
26/03:30am 12.6 WNW 7 12 1018.5 - 0.0 - - - - - - -
26/03:00am 12.1 WNW 7 13 1018.7 - 0.0 - - - - - - -
26/02:30am 12.0 W 9 13 1019.0 - 0.0 - - - - - - -
26/02:18am 11.6 W 7 12 1019.1 - 0.0 - - - - - - -
26/02:00am 6.5 CALM 0 1 1019.2 - 0.0 - - - - - - -
26/01:30am 5.8 E 3 4 1019.2 - 0.0 - - - - - - -
26/01:00am 5.5 E 2 3 1019.8 - 0.0 - - - - - - -
26/12:30am 5.7 E 3 4 1019.8 - 0.0 - - - - - - -
26/12:00am 5.8 ENE 1 3 1019.9 - 0.0 - - - - - - -
 
Date/Time
WST
Temp
°C
Wind Pressure Rain since
9am
mm
Weather Cloud Vis
km
Sea
Height
m
Swell
Dir  Spd
kts
Gust
kts
hPa Trend Height
m
Period
s
Dir
25/11:30pm 5.6 E 2 3 1020.5 - 0.0 - - - - - - -
25/11:00pm 5.5 E 3 3 1020.6 - 0.0 - - - - - - -
25/10:30pm 6.2 CALM 0 0 1021.0 - 0.0 - - - - - - -
25/10:00pm 6.7 E 1 3 1020.9 - 0.0 - - - - - - -
25/09:30pm 7.4 CALM 0 1 1020.8 - 0.0 - - - - - - -
25/09:00pm 8.8 SSW 1 3 1021.1 - 0.0 - - - - - - -
25/08:30pm 9.7 S 2 4 1021.3 - 0.0 - - - - - - -
25/08:00pm 10.5 SSW 4 5 1021.3 - 0.0 - - - - - - -
25/07:30pm 11.1 SSW 5 9 1020.9 - 0.0 - - - - - - -
25/07:00pm 11.6 SSW 6 9 1020.5 - 0.0 - - - - - - -
25/06:30pm 12.1 SW 7 11 1020.1 - 0.0 - - - - - - -
25/06:00pm 12.8 SW 9 14 1019.9 - 0.0 - - - - - - -
25/05:30pm 13.8 WSW 9 14 1019.6 - 0.0 - - - - - - -
25/05:00pm 14.4 WSW 9 16 1019.4 - 0.0 - - - - - - -
25/04:30pm 15.0 WSW 9 14 1019.0 - 0.0 - - - - - - -
25/04:00pm 15.2 W 9 12 1018.7 - 0.0 - - - - - - -
25/03:30pm 15.6 WSW 9 16 1018.5 - 0.0 - - - - - - -
25/03:00pm 16.1 SW 7 12 1018.4 - 0.0 - - - - - - -
25/02:30pm 16.3 WSW 8 14 1018.2 - 0.0 - - - - - - -
25/02:00pm 16.2 S 5 13 1018.1 - 0.0 - - - - - - -
25/01:30pm 16.0 SW 7 11 1018.3 - 0.0 - - - - - - -
25/01:00pm 15.4 S 7 11 1018.5 - 0.0 - - - - - - -
25/12:30pm 15.5 S 7 11 1018.8 - 0.0 - - - - - - -
25/12:00pm 14.8 SSW 8 15 1019.0 - 0.0 - - - - - - -
25/11:30am 13.8 S 8 12 1019.4 - 0.0 - - - - - - -
25/11:00am 13.7 S 8 12 1019.4 - 0.0 - - - - - - -
25/10:30am 13.3 SSW 11 17 1019.5 - 0.0 - - - - - - -
25/10:00am 12.9 S 9 14 1019.5 - 0.0 - - - - - - -
25/09:30am 12.5 S 9 15 1019.5 - 0.0 - - - - - - -
25/09:00am 12.1 SSE 7 13 1019.2 - 4.6 - - - - - - -
25/08:30am 11.3 SSE 7 13 1019.1 - 4.6 - - - - - - -
25/08:00am 10.0 S 6 10 1018.7 - 4.6 - - - - - - -
25/07:30am 8.9 S 4 6 1018.5 - 4.6 - - - - - - -
25/07:00am 8.2 S 4 6 1018.1 - 4.6 - - - - - - -
25/06:30am 7.5 S 6 8 1017.5 - 4.6 - - - - - - -
25/06:00am 7.6 SSE 4 7 1017.1 - 4.6 - - - - - - -
25/05:30am 8.1 S 4 5 1016.7 - 4.6 - - - - - - -
25/05:00am 8.8 S 4 6 1016.3 - 4.6 - - - - - - -
25/04:30am 9.1 SSE 5 9 1015.8 - 4.6 - - - - - - -
25/04:00am 9.3 S 7 10 1015.4 - 4.6 - - - - - - -
25/03:30am 9.6 S 10 16 1015.0 - 4.6 - - - - - - -
25/03:00am 10.1 S 9 13 1014.6 - 4.6 Recent precip. - - - - - -
25/02:30am 10.1 S 7 13 1014.1 - 4.6 - - - - - - -
25/02:00am 10.5 SE 3 4 1014.0 - 4.2 - - - - - - -
25/01:30am 10.3 E 2 4 1013.7 - 3.8 - - - - - - -
25/01:00am 9.7 CALM 0 0 1013.7 - 2.4 - - - - - - -
25/12:30am 9.5 E 1 2 1013.6 - 2.4 - - - - - - -
25/12:00am 10.4 SE 1 2 1013.6 - 2.4 - - - - - - -
 
Date/Time
WST
Temp
°C
Wind Pressure Rain since
9am
mm
Weather Cloud Vis
km
Sea
Height
m
Swell
Dir  Spd
kts
Gust
kts
hPa Trend Height
m
Period
s
Dir
24/11:30pm 11.1 S 4 5 1013.8 - 2.4 - - - - - - -
24/11:00pm 11.8 WSW 4 9 1014.0 - 2.4 - - - - - - -
24/10:30pm 11.2 WSW 9 15 1014.4 - 2.0 - - - - - - -
24/10:00pm 11.3 SW 1 4 1014.1 - 1.4 - - - - - - -

Other Formats:

Comma delimited format used in spreadsheet applications
http://www.bom.gov.au/fwo/IDW60701/IDW60701.94604.axf

JavaScript Object Notation format (JSON) in row-major order
http://www.bom.gov.au/fwo/IDW60701/IDW60701.94604.json